Weather History for Clinton, OK

Change the Weather History Date:

Thursday, April 10, 2014

  Actual Average (KCSM) Record (KCSM)
Temperature  
Mean Temperature 68 °F -  
Max Temperature 80 °F 67 °F 81 °F (2014)
Min Temperature 55 °F 43 °F 24 °F (2013)
Cooling Degree Days 2    
Growing Degree Days 18 (Base 50)    
Moisture  
Dew Point 28 °F    
Average Humidity 24    
Maximum Humidity 44    
Minimum Humidity 8    
Precipitation  
Precipitation 0.00 in - - ()
Sea Level Pressure  
Sea Level Pressure 29.85 in    
Wind  
Wind Speed 14 mph (East)    
Max Wind Speed 21 mph    
Max Gust Speed 28 mph    
Visibility 10 miles    
Events      
Averages and records for this station are not official NWS values.
T = Trace of Precipitation, MM = Missing Value Source: NWS Daily Summary

Daily Weather History Graph

Daily Weather History Graph

Search for Another Location

Airport:

Trip Planner

Search our weather history database for the weather conditions in past years. The results will help you decide how hot, cold, wet, or windy it might be!

Date:

Astronomy

Apr. 10, 2014 Rise Set
Actual Time 7:09 AM CDT 8:04 PM CDT
Civil Twilight 6:43 AM CDT 8:30 PM CDT
Nautical Twilight 6:13 AM CDT 9:01 PM CDT
Astronomical Twilight 5:41 AM CDT 9:33 PM CDT
Moon 3:58 PM CDT (4/10) 4:24 AM CDT (4/10)
Length of Visible Light 13h 47m
Length of Day
12h 55m
Waxing Gibbous, 80% of the Moon is Illuminated
Apr 10
Waxing Gibbous
Apr 15
Full
Apr 22
Last Quarter
Apr 29
New
May 6
First Quarter

Hourly Weather History & Observations

Time (CDT) Temp. Dew Point Humidity Pressure Visibility Wind Dir Wind Speed Gust Speed Precip Events Conditions
12:15 AM 66.2 °F 28.4 °F 24% 29.84 in 10.0 mi SSE 15.0 mph - N/A   Scattered Clouds
12:35 AM 64.4 °F 28.4 °F 26% 29.84 in 10.0 mi SSE 15.0 mph - N/A   Scattered Clouds
12:55 AM 68.0 °F 28.4 °F 23% 29.84 in 10.0 mi South 20.7 mph 24.2 mph N/A   Scattered Clouds
1:15 AM 68.0 °F 30.2 °F 24% 29.84 in 10.0 mi South 19.6 mph 27.6 mph N/A   Clear
1:35 AM 66.2 °F 30.2 °F 26% 29.84 in 10.0 mi SSE 20.7 mph 25.3 mph N/A   Clear
1:55 AM 64.4 °F 30.2 °F 28% 29.84 in 10.0 mi SSE 17.3 mph 24.2 mph N/A   Clear
2:15 AM 64.4 °F 30.2 °F 28% 29.84 in 10.0 mi SSE 15.0 mph 20.7 mph N/A   Clear
2:35 AM 62.6 °F 30.2 °F 30% 29.83 in 10.0 mi SSE 13.8 mph 18.4 mph N/A   Clear
2:55 AM 62.6 °F 30.2 °F 30% 29.82 in 10.0 mi South 15.0 mph - N/A   Scattered Clouds
3:15 AM 62.6 °F 30.2 °F 30% 29.81 in 10.0 mi South 15.0 mph - N/A   Scattered Clouds
3:35 AM 62.6 °F 30.2 °F 30% 29.81 in 10.0 mi SSE 12.7 mph - N/A   Scattered Clouds
3:55 AM 60.8 °F 30.2 °F 31% 29.81 in 10.0 mi SSE 10.4 mph - N/A   Scattered Clouds
4:15 AM 60.8 °F 30.2 °F 31% 29.80 in 10.0 mi SSE 10.4 mph - N/A   Mostly Cloudy
4:35 AM 59.0 °F 30.2 °F 34% 29.80 in 10.0 mi SE 9.2 mph - N/A   Scattered Clouds
4:55 AM 59.0 °F 28.4 °F 31% 29.79 in 10.0 mi SE 10.4 mph - N/A   Scattered Clouds
5:15 AM 59.0 °F 28.4 °F 31% 29.79 in 10.0 mi SE 9.2 mph - N/A   Clear
5:35 AM 59.0 °F 26.6 °F 29% 29.79 in 10.0 mi SSE 8.1 mph - N/A   Scattered Clouds
5:55 AM 55.4 °F 28.4 °F 36% 29.79 in 10.0 mi SE 9.2 mph - N/A   Scattered Clouds
6:15 AM 57.2 °F 28.4 °F 33% 29.79 in 10.0 mi SSE 10.4 mph - N/A   Clear
6:35 AM 59.0 °F 26.6 °F 29% 29.78 in 10.0 mi South 12.7 mph - N/A   Scattered Clouds
6:55 AM 60.8 °F 26.6 °F 27% 29.78 in 10.0 mi South 11.5 mph 20.7 mph N/A   Scattered Clouds
7:15 AM 60.8 °F 26.6 °F 27% 29.78 in 10.0 mi SSE 10.4 mph - N/A   Clear
7:35 AM 60.8 °F 26.6 °F 27% 29.79 in 10.0 mi SSE 8.1 mph 16.1 mph N/A   Clear
7:55 AM 60.8 °F 26.6 °F 27% 29.79 in 10.0 mi SSE 6.9 mph - N/A   Clear
8:15 AM 62.6 °F 28.4 °F 27% 29.79 in 10.0 mi South 12.7 mph 18.4 mph N/A   Clear
8:35 AM 64.4 °F 26.6 °F 24% 29.79 in 10.0 mi SSW 17.3 mph - N/A   Clear
8:55 AM 68.0 °F 26.6 °F 21% 29.79 in 10.0 mi SSW 16.1 mph 25.3 mph N/A   Clear
9:15 AM 68.0 °F 26.6 °F 21% 29.80 in 10.0 mi SW 15.0 mph 26.5 mph N/A   Clear
9:55 AM 71.6 °F 24.8 °F 17% 29.79 in 10.0 mi WSW 18.4 mph 26.5 mph N/A   Clear
10:15 AM 73.4 °F 23.0 °F 15% 29.81 in 10.0 mi SW 17.3 mph 25.3 mph N/A   Clear
10:35 AM 75.2 °F 21.2 °F 13% 29.81 in 10.0 mi SW 12.7 mph - N/A   Clear
10:55 AM 77.0 °F 17.6 °F 11% 29.82 in 10.0 mi West 15.0 mph - N/A   Clear
11:15 AM 78.8 °F 12.2 °F 8% 29.82 in 10.0 mi West 16.1 mph 19.6 mph N/A   Clear
11:35 AM 78.8 °F 14.0 °F 9% 29.83 in 10.0 mi West 13.8 mph 18.4 mph N/A   Clear
11:55 AM 78.8 °F 12.2 °F 8% 29.84 in 10.0 mi West 15.0 mph - N/A   Clear
12:15 PM 78.8 °F 12.2 °F 8% 29.84 in 10.0 mi WNW 11.5 mph 19.6 mph N/A   Clear
12:35 PM 78.8 °F 12.2 °F 8% 29.84 in 10.0 mi WNW 11.5 mph 17.3 mph N/A   Clear
12:55 PM 80.6 °F 15.8 °F 9% 29.84 in 10.0 mi NW 11.5 mph 17.3 mph N/A   Clear
1:15 PM 78.8 °F 19.4 °F 11% 29.84 in 10.0 mi NW 12.7 mph 20.7 mph N/A   Clear
1:35 PM 80.6 °F 19.4 °F 10% 29.84 in 10.0 mi NW 12.7 mph 18.4 mph N/A   Clear
1:55 PM 78.8 °F 21.2 °F 12% 29.85 in 10.0 mi North 15.0 mph 23.0 mph N/A   Clear
2:35 PM 80.6 °F 23.0 °F 12% 29.85 in 10.0 mi NNE 11.5 mph 19.6 mph N/A   Clear
2:55 PM 78.8 °F 26.6 °F 15% 29.85 in 10.0 mi North 13.8 mph 20.7 mph N/A   Clear
3:15 PM 80.6 °F 24.8 °F 13% 29.85 in 10.0 mi NNE 16.1 mph 23.0 mph N/A   Clear
3:35 PM 80.6 °F 26.6 °F 14% 29.85 in 10.0 mi North 12.7 mph 19.6 mph N/A   Clear
3:55 PM 80.6 °F 30.2 °F 16% 29.86 in 10.0 mi NNE 17.3 mph 21.9 mph N/A   Clear
4:15 PM 78.8 °F 30.2 °F 17% 29.86 in 10.0 mi NNE 17.3 mph 25.3 mph N/A   Clear
4:35 PM 78.8 °F 32.0 °F 18% 29.86 in 10.0 mi NE 15.0 mph 21.9 mph N/A   Clear
4:55 PM 78.8 °F 32.0 °F 18% 29.86 in 10.0 mi NE 19.6 mph 23.0 mph N/A   Clear
5:15 PM 77.0 °F 32.0 °F 19% 29.86 in 10.0 mi NE 17.3 mph - N/A   Clear
5:35 PM 77.0 °F 32.0 °F 19% 29.86 in 10.0 mi NNE 16.1 mph 24.2 mph N/A   Clear
5:55 PM 77.0 °F 32.0 °F 19% 29.86 in 10.0 mi NE 17.3 mph - N/A   Clear
6:15 PM 77.0 °F 32.0 °F 19% 29.87 in 10.0 mi NNE 17.3 mph 20.7 mph N/A   Clear
6:35 PM 77.0 °F 32.0 °F 19% 29.88 in 10.0 mi NNE 17.3 mph - N/A   Clear
6:55 PM 75.2 °F 32.0 °F 21% 29.88 in 10.0 mi NNE 16.1 mph 20.7 mph N/A   Clear
7:15 PM 73.4 °F 32.0 °F 22% 29.88 in 10.0 mi NNE 12.7 mph - N/A   Clear
7:35 PM 71.6 °F 33.8 °F 25% 29.89 in 10.0 mi NNE 10.4 mph - N/A   Clear
7:55 PM 69.8 °F 33.8 °F 27% 29.89 in 10.0 mi NNE 8.1 mph - N/A   Clear
8:15 PM 64.4 °F 35.6 °F 34% 29.90 in 10.0 mi NNE 8.1 mph - N/A   Clear
8:35 PM 64.4 °F 35.6 °F 34% 29.90 in 10.0 mi NNE 10.4 mph - N/A   Clear
8:55 PM 62.6 °F 33.8 °F 34% 29.90 in 10.0 mi NNE 9.2 mph - N/A   Scattered Clouds
9:15 PM 62.6 °F 33.8 °F 34% 29.91 in 10.0 mi NNE 10.4 mph - N/A   Scattered Clouds
9:35 PM 60.8 °F 33.8 °F 36% 29.92 in 10.0 mi NNE 6.9 mph - N/A   Clear
9:55 PM 60.8 °F 33.8 °F 36% 29.93 in 10.0 mi NNE 10.4 mph - N/A   Scattered Clouds
10:15 PM 59.0 °F 33.8 °F 39% 29.93 in 10.0 mi NNE 10.4 mph - N/A   Clear
10:35 PM 57.2 °F 33.8 °F 41% 29.94 in 10.0 mi NNE 10.4 mph - N/A   Scattered Clouds
10:55 PM 55.4 °F 33.8 °F 44% 29.95 in 10.0 mi NE 8.1 mph - N/A   Scattered Clouds
11:15 PM 55.4 °F 33.8 °F 44% 29.95 in 10.0 mi NE 9.2 mph - N/A   Scattered Clouds
11:35 PM 57.2 °F 32.0 °F 38% 29.93 in 10.0 mi NE 8.1 mph - N/A   Scattered Clouds
11:55 PM 57.2 °F 32.0 °F 38% 29.93 in 10.0 mi NE 10.4 mph - N/A   Mostly Cloudy